Hlavní strana
METAR-TAF:

METAR-TAF

Letiště :

Lexington, Severní Karolína, Spojené státy americké

zeměpisná šířka: 35-46-52N, zeměpisná délka: 080-18-14W, výška: 223 m

Aktuální stav počasí

Zpráva byla vytvořena před 25 minutami, v 17:55 UTC
Západní vítr 5 kt
Teplota 7°C
Vlhkost vzduchu 31%
Tlak 1016 hPa
Viditelnost: 16.1 km
Jasno

METAR: KEXX 271755Z AUTO 27005KT 10SM CLR 07/M09 A3001 RMK AO2 T00661094 10067 20015

Čas: 13:20 (18:20 UTC)


TAF: chybějící

Stav a předpovědi počasí z více než 4 000 letišť (zprávy METAR a TAF).

Červené a žluté tečky na mapě představují dostupné meteorologické stanice.

Když kurzor umístíte na tečku, zobrazí se název stanice.

Pak kliknutím zobrazíte stav a předpověď počasí.

Chcete-li změnit mapu, kliknutím na zelené tlačítko se znaménkem +mapu přiblížíte, kliknutím na zelené tlačítko se znaménkem – mapu oddálíte a kliknutím na zelené šipky přejdete na sousední mapy.


METAR-TAF: